LFLB/CMF METAR and TAF weather

Enter ICAO airport designator
Station Type Date Time Source
LFLB METAR 2019/05/25 15:00 UTC NOAA

LFLB 251500Z AUTO 34005KT 9999 FEW032/// OVC090/// ///CB 18/13 Q1015 TEMPO VRB15KT 4000 TSRA


Station Type Date Time Source
LFLB Decoded METAR 2019/05/25 15:00 UTC NOAA

Chambery / Aix-Les-Bains, France (LFLB) 45-39N 005-53E 239M
May 25, 2019 - 11:00 AM EDT / 2019.05.25 1500 UTC
Wind: from the NNW (340 degrees) at 6 MPH (5 KT):0
Visibility: greater than 7 mile(s):0
Sky conditions: overcast
Weather: Cumulonimbus clouds observed
Temperature: 64 F (18 C)
Dew Point: 55 F (13 C)
Relative Humidity: 72%
Pressure (altimeter): 29.97 in. Hg (1015 hPa)
ob: LFLB 251500Z AUTO 34005KT 9999 FEW032/// OVC090/// ///CB 18/13 Q1015 TEMPO VRB15KT 4000 TSRA
cycle: 15

Station Type Date Time Source
LFLB TAF 2019/05/25 12:46 UTC NOAA

TAF LFLB 251100Z 2512/2612 VRB02KT 9999 FEW040 SCT060
TEMPO 2512/2519 VRB12KT SHRA SCT045TCU PROB30
TEMPO 2514/2519 VRB15KT 4000 TSRA SCT040CB BKN050
BECMG 2608/2612 36012KT

Example: see airport list